sensor_id;sensor_type;location;lat;lon;timestamp;P1;durP1;ratioP1;P2;durP2;ratioP2
15643;SDS011;7921;43.586;1.408;2023-09-18T00:01:36;2.47;;;1.38;;
15643;SDS011;7921;43.586;1.408;2023-09-18T00:04:04;2.60;;;1.15;;
15643;SDS011;7921;43.586;1.408;2023-09-18T00:06:30;2.53;;;1.48;;
15643;SDS011;7921;43.586;1.408;2023-09-18T00:08:56;1.67;;;1.25;;
15643;SDS011;7921;43.586;1.408;2023-09-18T00:11:21;3.35;;;1.40;;
15643;SDS011;7921;43.586;1.408;2023-09-18T00:13:47;2.83;;;1.52;;
15643;SDS011;7921;43.586;1.408;2023-09-18T00:16:12;3.03;;;1.70;;
15643;SDS011;7921;43.586;1.408;2023-09-18T00:18:38;2.13;;;1.50;;
15643;SDS011;7921;43.586;1.408;2023-09-18T00:21:03;1.75;;;1.40;;
15643;SDS011;7921;43.586;1.408;2023-09-18T00:23:29;3.13;;;1.77;;
15643;SDS011;7921;43.586;1.408;2023-09-18T00:25:54;1.83;;;1.60;;
15643;SDS011;7921;43.586;1.408;2023-09-18T00:28:20;1.55;;;1.40;;
15643;SDS011;7921;43.586;1.408;2023-09-18T00:30:48;2.35;;;1.35;;
15643;SDS011;7921;43.586;1.408;2023-09-18T00:33:14;1.95;;;1.42;;
15643;SDS011;7921;43.586;1.408;2023-09-18T00:35:40;3.60;;;1.75;;
15643;SDS011;7921;43.586;1.408;2023-09-18T00:38:05;2.95;;;1.58;;
15643;SDS011;7921;43.586;1.408;2023-09-18T00:40:32;2.38;;;1.65;;
15643;SDS011;7921;43.586;1.408;2023-09-18T00:42:57;4.00;;;1.60;;
15643;SDS011;7921;43.586;1.408;2023-09-18T00:45:23;2.30;;;1.63;;
15643;SDS011;7921;43.586;1.408;2023-09-18T00:47:48;1.65;;;1.55;;
15643;SDS011;7921;43.586;1.408;2023-09-18T00:50:14;1.80;;;1.55;;
15643;SDS011;7921;43.586;1.408;2023-09-18T00:52:39;4.07;;;1.42;;
15643;SDS011;7921;43.586;1.408;2023-09-18T00:55:05;2.45;;;1.70;;
15643;SDS011;7921;43.586;1.408;2023-09-18T00:57:32;1.95;;;1.25;;
15643;SDS011;7921;43.586;1.408;2023-09-18T00:59:57;2.47;;;1.45;;
15643;SDS011;7921;43.586;1.408;2023-09-18T01:02:23;2.53;;;1.48;;
15643;SDS011;7921;43.586;1.408;2023-09-18T01:04:49;1.80;;;1.70;;
15643;SDS011;7921;43.586;1.408;2023-09-18T01:07:14;2.17;;;2.03;;
15643;SDS011;7921;43.586;1.408;2023-09-18T01:09:40;3.40;;;1.77;;
15643;SDS011;7921;43.586;1.408;2023-09-18T01:12:08;2.25;;;1.50;;
15643;SDS011;7921;43.586;1.408;2023-09-18T01:17:22;1.88;;;1.63;;
15643;SDS011;7921;43.586;1.408;2023-09-18T01:19:48;2.70;;;1.35;;
15643;SDS011;7921;43.586;1.408;2023-09-18T01:22:15;2.65;;;1.60;;
15643;SDS011;7921;43.586;1.408;2023-09-18T01:24:42;3.80;;;1.50;;
15643;SDS011;7921;43.586;1.408;2023-09-18T01:27:09;3.13;;;1.48;;
15643;SDS011;7921;43.586;1.408;2023-09-18T01:29:35;1.50;;;1.40;;
15643;SDS011;7921;43.586;1.408;2023-09-18T01:32:01;1.50;;;1.30;;
15643;SDS011;7921;43.586;1.408;2023-09-18T01:34:30;2.78;;;1.50;;
15643;SDS011;7921;43.586;1.408;2023-09-18T01:36:58;2.60;;;1.65;;
15643;SDS011;7921;43.586;1.408;2023-09-18T01:39:25;3.17;;;1.70;;
15643;SDS011;7921;43.586;1.408;2023-09-18T01:41:52;1.55;;;1.30;;
15643;SDS011;7921;43.586;1.408;2023-09-18T01:44:17;2.40;;;1.63;;
15643;SDS011;7921;43.586;1.408;2023-09-18T01:46:43;2.00;;;1.70;;
15643;SDS011;7921;43.586;1.408;2023-09-18T01:49:09;2.35;;;1.45;;
15643;SDS011;7921;43.586;1.408;2023-09-18T01:51:34;2.00;;;1.30;;
15643;SDS011;7921;43.586;1.408;2023-09-18T01:54:00;2.00;;;1.48;;
15643;SDS011;7921;43.586;1.408;2023-09-18T01:56:25;1.42;;;1.33;;
15643;SDS011;7921;43.586;1.408;2023-09-18T01:58:51;2.03;;;1.40;;
15643;SDS011;7921;43.586;1.408;2023-09-18T02:01:16;1.67;;;1.40;;
15643;SDS011;7921;43.586;1.408;2023-09-18T02:03:41;3.15;;;1.55;;
15643;SDS011;7921;43.586;1.408;2023-09-18T02:06:10;1.85;;;1.60;;
15643;SDS011;7921;43.586;1.408;2023-09-18T02:08:35;2.40;;;1.60;;
15643;SDS011;7921;43.586;1.408;2023-09-18T02:11:01;1.48;;;1.38;;
15643;SDS011;7921;43.586;1.408;2023-09-18T02:13:28;3.28;;;1.77;;
15643;SDS011;7921;43.586;1.408;2023-09-18T02:15:53;2.47;;;1.60;;
15643;SDS011;7921;43.586;1.408;2023-09-18T02:18:19;1.77;;;1.67;;
15643;SDS011;7921;43.586;1.408;2023-09-18T02:20:44;4.68;;;1.60;;
15643;SDS011;7921;43.586;1.408;2023-09-18T02:23:13;2.53;;;1.30;;
15643;SDS011;7921;43.586;1.408;2023-09-18T02:25:39;1.52;;;1.42;;
15643;SDS011;7921;43.586;1.408;2023-09-18T02:28:05;4.32;;;1.85;;
15643;SDS011;7921;43.586;1.408;2023-09-18T02:30:31;1.42;;;1.33;;
15643;SDS011;7921;43.586;1.408;2023-09-18T02:32:56;2.15;;;1.38;;
15643;SDS011;7921;43.586;1.408;2023-09-18T02:35:22;3.10;;;1.60;;
15643;SDS011;7921;43.586;1.408;2023-09-18T02:37:47;3.10;;;1.90;;
15643;SDS011;7921;43.586;1.408;2023-09-18T02:40:13;1.60;;;1.50;;
15643;SDS011;7921;43.586;1.408;2023-09-18T02:42:38;2.50;;;1.55;;
15643;SDS011;7921;43.586;1.408;2023-09-18T02:45:03;2.45;;;1.50;;
15643;SDS011;7921;43.586;1.408;2023-09-18T02:47:29;2.72;;;1.90;;
15643;SDS011;7921;43.586;1.408;2023-09-18T02:49:54;4.72;;;1.58;;
15643;SDS011;7921;43.586;1.408;2023-09-18T02:52:20;2.42;;;1.85;;
15643;SDS011;7921;43.586;1.408;2023-09-18T02:54:45;2.63;;;1.40;;
15643;SDS011;7921;43.586;1.408;2023-09-18T02:57:10;2.58;;;1.75;;
15643;SDS011;7921;43.586;1.408;2023-09-18T02:59:36;1.75;;;1.65;;
15643;SDS011;7921;43.586;1.408;2023-09-18T03:02:01;3.10;;;1.67;;
15643;SDS011;7921;43.586;1.408;2023-09-18T03:04:27;2.33;;;1.52;;
15643;SDS011;7921;43.586;1.408;2023-09-18T03:06:54;1.70;;;1.55;;
15643;SDS011;7921;43.586;1.408;2023-09-18T03:09:20;8.65;;;7.85;;
15643;SDS011;7921;43.586;1.408;2023-09-18T03:11:46;6.72;;;6.03;;
15643;SDS011;7921;43.586;1.408;2023-09-18T03:14:11;7.00;;;6.40;;
15643;SDS011;7921;43.586;1.408;2023-09-18T03:16:37;8.25;;;7.55;;
15643;SDS011;7921;43.586;1.408;2023-09-18T03:19:02;6.45;;;5.95;;
15643;SDS011;7921;43.586;1.408;2023-09-18T03:21:28;5.30;;;4.80;;
15643;SDS011;7921;43.586;1.408;2023-09-18T03:23:53;3.13;;;2.90;;
15643;SDS011;7921;43.586;1.408;2023-09-18T03:26:19;3.10;;;2.50;;
15643;SDS011;7921;43.586;1.408;2023-09-18T03:28:44;5.32;;;2.55;;
15643;SDS011;7921;43.586;1.408;2023-09-18T03:31:09;4.28;;;2.20;;
15643;SDS011;7921;43.586;1.408;2023-09-18T03:33:35;3.10;;;1.95;;
15643;SDS011;7921;43.586;1.408;2023-09-18T03:36:00;2.58;;;1.73;;
15643;SDS011;7921;43.586;1.408;2023-09-18T03:38:26;1.52;;;1.40;;
15643;SDS011;7921;43.586;1.408;2023-09-18T03:40:51;1.98;;;1.83;;
15643;SDS011;7921;43.586;1.408;2023-09-18T03:43:16;1.80;;;1.67;;
15643;SDS011;7921;43.586;1.408;2023-09-18T03:45:42;4.28;;;1.65;;
15643;SDS011;7921;43.586;1.408;2023-09-18T03:48:08;2.45;;;1.88;;
15643;SDS011;7921;43.586;1.408;2023-09-18T03:50:33;1.85;;;1.63;;
15643;SDS011;7921;43.586;1.408;2023-09-18T03:52:59;4.70;;;1.98;;
15643;SDS011;7921;43.586;1.408;2023-09-18T03:55:24;2.42;;;1.85;;
15643;SDS011;7921;43.586;1.408;2023-09-18T03:57:51;4.00;;;1.83;;
15643;SDS011;7921;43.586;1.408;2023-09-18T04:00:17;3.00;;;2.20;;
15643;SDS011;7921;43.586;1.408;2023-09-18T04:02:43;3.33;;;1.65;;
15643;SDS011;7921;43.586;1.408;2023-09-18T04:05:08;3.45;;;1.90;;
15643;SDS011;7921;43.586;1.408;2023-09-18T04:07:34;3.15;;;2.20;;
15643;SDS011;7921;43.586;1.408;2023-09-18T04:10:00;2.63;;;2.05;;
15643;SDS011;7921;43.586;1.408;2023-09-18T04:12:25;3.22;;;1.90;;
15643;SDS011;7921;43.586;1.408;2023-09-18T04:14:51;2.20;;;2.00;;
15643;SDS011;7921;43.586;1.408;2023-09-18T04:17:17;3.28;;;1.80;;
15643;SDS011;7921;43.586;1.408;2023-09-18T04:19:42;3.42;;;1.92;;
15643;SDS011;7921;43.586;1.408;2023-09-18T04:22:08;3.65;;;2.33;;
15643;SDS011;7921;43.586;1.408;2023-09-18T04:24:33;4.40;;;2.33;;
15643;SDS011;7921;43.586;1.408;2023-09-18T04:26:59;3.47;;;1.90;;
15643;SDS011;7921;43.586;1.408;2023-09-18T04:29:24;3.55;;;2.42;;
15643;SDS011;7921;43.586;1.408;2023-09-18T04:31:50;2.85;;;1.88;;
15643;SDS011;7921;43.586;1.408;2023-09-18T04:34:15;4.35;;;2.28;;
15643;SDS011;7921;43.586;1.408;2023-09-18T04:36:41;4.45;;;1.55;;
15643;SDS011;7921;43.586;1.408;2023-09-18T04:39:06;4.35;;;2.17;;
15643;SDS011;7921;43.586;1.408;2023-09-18T04:41:32;2.85;;;1.90;;
15643;SDS011;7921;43.586;1.408;2023-09-18T04:43:58;4.10;;;2.10;;
15643;SDS011;7921;43.586;1.408;2023-09-18T04:46:24;2.10;;;1.70;;
15643;SDS011;7921;43.586;1.408;2023-09-18T04:48:50;3.92;;;2.28;;
15643;SDS011;7921;43.586;1.408;2023-09-18T04:51:15;2.05;;;1.85;;
15643;SDS011;7921;43.586;1.408;2023-09-18T04:53:41;4.28;;;2.25;;
15643;SDS011;7921;43.586;1.408;2023-09-18T04:56:07;3.28;;;1.90;;
15643;SDS011;7921;43.586;1.408;2023-09-18T04:58:35;5.43;;;2.08;;
15643;SDS011;7921;43.586;1.408;2023-09-18T05:01:02;2.30;;;1.90;;
15643;SDS011;7921;43.586;1.408;2023-09-18T05:03:30;5.78;;;2.08;;
15643;SDS011;7921;43.586;1.408;2023-09-18T05:05:55;2.33;;;2.13;;
15643;SDS011;7921;43.586;1.408;2023-09-18T05:08:20;3.10;;;2.33;;
15643;SDS011;7921;43.586;1.408;2023-09-18T05:10:46;3.20;;;2.10;;
15643;SDS011;7921;43.586;1.408;2023-09-18T05:13:12;2.38;;;1.95;;
15643;SDS011;7921;43.586;1.408;2023-09-18T05:15:38;3.38;;;2.33;;
15643;SDS011;7921;43.586;1.408;2023-09-18T05:18:03;4.40;;;2.28;;
15643;SDS011;7921;43.586;1.408;2023-09-18T05:20:29;3.75;;;1.85;;
15643;SDS011;7921;43.586;1.408;2023-09-18T05:22:56;3.70;;;1.92;;
15643;SDS011;7921;43.586;1.408;2023-09-18T05:25:22;6.30;;;2.05;;
15643;SDS011;7921;43.586;1.408;2023-09-18T05:27:50;2.20;;;1.77;;
15643;SDS011;7921;43.586;1.408;2023-09-18T05:30:23;4.10;;;1.90;;
15643;SDS011;7921;43.586;1.408;2023-09-18T05:33:04;3.60;;;1.75;;
15643;SDS011;7921;43.586;1.408;2023-09-18T05:35:51;4.53;;;2.28;;
15643;SDS011;7921;43.586;1.408;2023-09-18T05:38:16;2.75;;;1.98;;
15643;SDS011;7921;43.586;1.408;2023-09-18T05:40:43;4.97;;;2.20;;
15643;SDS011;7921;43.586;1.408;2023-09-18T05:43:10;5.40;;;2.35;;
15643;SDS011;7921;43.586;1.408;2023-09-18T05:45:35;2.13;;;1.80;;
15643;SDS011;7921;43.586;1.408;2023-09-18T05:48:01;4.07;;;2.08;;
15643;SDS011;7921;43.586;1.408;2023-09-18T05:50:29;3.35;;;2.30;;
15643;SDS011;7921;43.586;1.408;2023-09-18T05:52:56;3.30;;;2.35;;
15643;SDS011;7921;43.586;1.408;2023-09-18T05:55:28;3.40;;;2.42;;
15643;SDS011;7921;43.586;1.408;2023-09-18T05:57:57;3.35;;;2.10;;
15643;SDS011;7921;43.586;1.408;2023-09-18T06:00:23;4.32;;;2.95;;
15643;SDS011;7921;43.586;1.408;2023-09-18T06:02:49;4.75;;;2.50;;
15643;SDS011;7921;43.586;1.408;2023-09-18T06:05:16;5.05;;;2.58;;
15643;SDS011;7921;43.586;1.408;2023-09-18T06:07:42;5.47;;;2.67;;
15643;SDS011;7921;43.586;1.408;2023-09-18T06:10:07;5.03;;;2.80;;
15643;SDS011;7921;43.586;1.408;2023-09-18T06:12:33;7.32;;;3.78;;
15643;SDS011;7921;43.586;1.408;2023-09-18T06:14:59;10.00;;;4.78;;
15643;SDS011;7921;43.586;1.408;2023-09-18T06:17:24;12.48;;;4.70;;
15643;SDS011;7921;43.586;1.408;2023-09-18T06:19:50;13.25;;;4.68;;
15643;SDS011;7921;43.586;1.408;2023-09-18T06:22:15;10.55;;;6.47;;
15643;SDS011;7921;43.586;1.408;2023-09-18T06:24:40;10.18;;;4.80;;
15643;SDS011;7921;43.586;1.408;2023-09-18T06:27:06;13.52;;;6.78;;
15643;SDS011;7921;43.586;1.408;2023-09-18T06:29:32;9.40;;;5.20;;
15643;SDS011;7921;43.586;1.408;2023-09-18T06:31:58;11.93;;;5.90;;
15643;SDS011;7921;43.586;1.408;2023-09-18T06:34:23;11.00;;;6.20;;
15643;SDS011;7921;43.586;1.408;2023-09-18T06:36:49;12.85;;;6.20;;
15643;SDS011;7921;43.586;1.408;2023-09-18T06:39:15;11.13;;;5.72;;
15643;SDS011;7921;43.586;1.408;2023-09-18T06:41:40;14.18;;;6.63;;
15643;SDS011;7921;43.586;1.408;2023-09-18T06:44:06;8.77;;;6.00;;
15643;SDS011;7921;43.586;1.408;2023-09-18T06:46:31;11.18;;;5.93;;
15643;SDS011;7921;43.586;1.408;2023-09-18T06:48:56;13.50;;;6.43;;
15643;SDS011;7921;43.586;1.408;2023-09-18T06:51:25;13.02;;;6.22;;
15643;SDS011;7921;43.586;1.408;2023-09-18T06:53:50;13.20;;;6.57;;
15643;SDS011;7921;43.586;1.408;2023-09-18T06:56:16;12.77;;;6.22;;
15643;SDS011;7921;43.586;1.408;2023-09-18T06:58:41;12.77;;;6.25;;
15643;SDS011;7921;43.586;1.408;2023-09-18T07:01:06;9.57;;;6.47;;
15643;SDS011;7921;43.586;1.408;2023-09-18T07:03:32;10.73;;;5.60;;
15643;SDS011;7921;43.586;1.408;2023-09-18T07:06:00;10.68;;;6.38;;
15643;SDS011;7921;43.586;1.408;2023-09-18T07:08:25;10.35;;;6.55;;
15643;SDS011;7921;43.586;1.408;2023-09-18T07:10:51;13.07;;;6.72;;
15643;SDS011;7921;43.586;1.408;2023-09-18T07:13:16;11.18;;;6.40;;
15643;SDS011;7921;43.586;1.408;2023-09-18T07:15:42;10.88;;;6.35;;
15643;SDS011;7921;43.586;1.408;2023-09-18T07:18:07;9.57;;;6.78;;
15643;SDS011;7921;43.586;1.408;2023-09-18T07:20:34;11.93;;;6.35;;
15643;SDS011;7921;43.586;1.408;2023-09-18T07:23:01;11.30;;;6.80;;
15643;SDS011;7921;43.586;1.408;2023-09-18T07:25:26;13.52;;;7.20;;
15643;SDS011;7921;43.586;1.408;2023-09-18T07:27:51;11.60;;;6.85;;
15643;SDS011;7921;43.586;1.408;2023-09-18T07:30:17;9.52;;;6.20;;
15643;SDS011;7921;43.586;1.408;2023-09-18T07:32:44;12.90;;;7.53;;
15643;SDS011;7921;43.586;1.408;2023-09-18T07:35:10;12.90;;;7.65;;
15643;SDS011;7921;43.586;1.408;2023-09-18T07:37:38;12.30;;;7.20;;
15643;SDS011;7921;43.586;1.408;2023-09-18T07:40:06;11.82;;;6.97;;
15643;SDS011;7921;43.586;1.408;2023-09-18T07:42:32;11.75;;;6.85;;
15643;SDS011;7921;43.586;1.408;2023-09-18T07:44:58;13.35;;;7.03;;
15643;SDS011;7921;43.586;1.408;2023-09-18T07:47:23;13.73;;;6.93;;
15643;SDS011;7921;43.586;1.408;2023-09-18T07:49:49;10.93;;;7.30;;
15643;SDS011;7921;43.586;1.408;2023-09-18T07:52:15;12.60;;;6.90;;
15643;SDS011;7921;43.586;1.408;2023-09-18T07:54:41;12.20;;;7.50;;
15643;SDS011;7921;43.586;1.408;2023-09-18T07:57:07;12.60;;;7.50;;
15643;SDS011;7921;43.586;1.408;2023-09-18T07:59:34;12.35;;;7.65;;
15643;SDS011;7921;43.586;1.408;2023-09-18T08:02:01;10.20;;;7.00;;
15643;SDS011;7921;43.586;1.408;2023-09-18T08:04:26;11.10;;;7.90;;
15643;SDS011;7921;43.586;1.408;2023-09-18T08:06:52;11.57;;;7.38;;
15643;SDS011;7921;43.586;1.408;2023-09-18T08:09:17;10.50;;;6.90;;
15643;SDS011;7921;43.586;1.408;2023-09-18T08:11:43;10.70;;;7.13;;
15643;SDS011;7921;43.586;1.408;2023-09-18T08:14:08;13.38;;;7.32;;
15643;SDS011;7921;43.586;1.408;2023-09-18T08:16:34;12.32;;;7.30;;
15643;SDS011;7921;43.586;1.408;2023-09-18T08:19:02;11.98;;;7.22;;
15643;SDS011;7921;43.586;1.408;2023-09-18T08:21:28;9.40;;;6.93;;
15643;SDS011;7921;43.586;1.408;2023-09-18T08:23:54;10.23;;;7.32;;
15643;SDS011;7921;43.586;1.408;2023-09-18T08:26:19;10.30;;;7.00;;
15643;SDS011;7921;43.586;1.408;2023-09-18T08:28:45;10.32;;;7.10;;
15643;SDS011;7921;43.586;1.408;2023-09-18T08:31:11;7.97;;;6.45;;
15643;SDS011;7921;43.586;1.408;2023-09-18T08:33:36;11.18;;;7.75;;
15643;SDS011;7921;43.586;1.408;2023-09-18T08:36:02;8.60;;;6.68;;
15643;SDS011;7921;43.586;1.408;2023-09-18T08:38:27;11.95;;;6.80;;
15643;SDS011;7921;43.586;1.408;2023-09-18T08:40:53;10.77;;;7.90;;
15643;SDS011;7921;43.586;1.408;2023-09-18T08:43:19;10.60;;;7.03;;
15643;SDS011;7921;43.586;1.408;2023-09-18T08:48:17;10.38;;;7.13;;
15643;SDS011;7921;43.586;1.408;2023-09-18T08:50:43;10.60;;;7.30;;
15643;SDS011;7921;43.586;1.408;2023-09-18T08:53:09;12.40;;;7.45;;
15643;SDS011;7921;43.586;1.408;2023-09-18T08:55:34;9.48;;;6.60;;
15643;SDS011;7921;43.586;1.408;2023-09-18T08:58:00;11.93;;;6.90;;
15643;SDS011;7921;43.586;1.408;2023-09-18T09:00:25;7.20;;;6.50;;
15643;SDS011;7921;43.586;1.408;2023-09-18T09:02:51;10.75;;;6.95;;
15643;SDS011;7921;43.586;1.408;2023-09-18T09:05:19;9.15;;;5.90;;
15643;SDS011;7921;43.586;1.408;2023-09-18T09:07:45;8.80;;;5.28;;
15643;SDS011;7921;43.586;1.408;2023-09-18T09:10:11;6.68;;;5.93;;
15643;SDS011;7921;43.586;1.408;2023-09-18T09:12:49;9.82;;;5.55;;
15643;SDS011;7921;43.586;1.408;2023-09-18T09:15:18;9.05;;;5.40;;
15643;SDS011;7921;43.586;1.408;2023-09-18T09:17:44;11.68;;;6.00;;
15643;SDS011;7921;43.586;1.408;2023-09-18T09:20:11;6.78;;;5.82;;
15643;SDS011;7921;43.586;1.408;2023-09-18T09:22:41;10.82;;;6.00;;
15643;SDS011;7921;43.586;1.408;2023-09-18T09:25:26;8.90;;;5.10;;
15643;SDS011;7921;43.586;1.408;2023-09-18T09:27:53;9.80;;;5.63;;
15643;SDS011;7921;43.586;1.408;2023-09-18T09:30:20;6.68;;;4.72;;
15643;SDS011;7921;43.586;1.408;2023-09-18T09:32:49;10.82;;;5.35;;
15643;SDS011;7921;43.586;1.408;2023-09-18T09:35:25;9.88;;;5.40;;
15643;SDS011;7921;43.586;1.408;2023-09-18T09:37:52;6.85;;;4.32;;
15643;SDS011;7921;43.586;1.408;2023-09-18T09:40:25;7.60;;;4.72;;
15643;SDS011;7921;43.586;1.408;2023-09-18T09:42:52;9.57;;;5.03;;
15643;SDS011;7921;43.586;1.408;2023-09-18T09:45:22;5.72;;;4.30;;
15643;SDS011;7921;43.586;1.408;2023-09-18T09:47:48;8.95;;;4.35;;
15643;SDS011;7921;43.586;1.408;2023-09-18T09:50:19;7.07;;;4.40;;
15643;SDS011;7921;43.586;1.408;2023-09-18T09:52:46;8.13;;;4.75;;
15643;SDS011;7921;43.586;1.408;2023-09-18T09:57:50;7.13;;;3.78;;
15643;SDS011;7921;43.586;1.408;2023-09-18T10:00:17;5.93;;;3.72;;
15643;SDS011;7921;43.586;1.408;2023-09-18T10:02:58;4.43;;;3.75;;
15643;SDS011;7921;43.586;1.408;2023-09-18T10:05:26;3.90;;;3.28;;
15643;SDS011;7921;43.586;1.408;2023-09-18T10:07:53;5.13;;;3.85;;
15643;SDS011;7921;43.586;1.408;2023-09-18T10:10:20;6.55;;;3.60;;
15643;SDS011;7921;43.586;1.408;2023-09-18T10:12:45;7.00;;;3.70;;
15643;SDS011;7921;43.586;1.408;2023-09-18T10:15:12;7.18;;;3.40;;
15643;SDS011;7921;43.586;1.408;2023-09-18T10:17:41;4.28;;;2.92;;
15643;SDS011;7921;43.586;1.408;2023-09-18T10:20:12;4.18;;;3.50;;
15643;SDS011;7921;43.586;1.408;2023-09-18T10:22:49;5.00;;;3.17;;
15643;SDS011;7921;43.586;1.408;2023-09-18T10:25:19;5.10;;;3.65;;
15643;SDS011;7921;43.586;1.408;2023-09-18T10:27:48;3.55;;;3.05;;
15643;SDS011;7921;43.586;1.408;2023-09-18T10:30:15;3.58;;;3.03;;
15643;SDS011;7921;43.586;1.408;2023-09-18T10:32:43;4.72;;;3.17;;
15643;SDS011;7921;43.586;1.408;2023-09-18T10:35:11;3.50;;;2.90;;
15643;SDS011;7921;43.586;1.408;2023-09-18T10:37:37;4.93;;;3.35;;
15643;SDS011;7921;43.586;1.408;2023-09-18T10:40:03;4.90;;;2.60;;
15643;SDS011;7921;43.586;1.408;2023-09-18T10:42:33;3.10;;;2.63;;
15643;SDS011;7921;43.586;1.408;2023-09-18T10:44:59;3.10;;;2.20;;
15643;SDS011;7921;43.586;1.408;2023-09-18T10:47:25;2.80;;;2.25;;
15643;SDS011;7921;43.586;1.408;2023-09-18T10:49:51;4.60;;;2.30;;
15643;SDS011;7921;43.586;1.408;2023-09-18T10:52:17;4.25;;;2.45;;
15643;SDS011;7921;43.586;1.408;2023-09-18T10:54:42;4.32;;;3.20;;
15643;SDS011;7921;43.586;1.408;2023-09-18T10:57:09;3.28;;;1.90;;
15643;SDS011;7921;43.586;1.408;2023-09-18T10:59:39;2.67;;;2.10;;
15643;SDS011;7921;43.586;1.408;2023-09-18T11:02:08;2.95;;;2.00;;
15643;SDS011;7921;43.586;1.408;2023-09-18T11:04:34;2.92;;;2.35;;
15643;SDS011;7921;43.586;1.408;2023-09-18T11:07:01;3.78;;;2.15;;
15643;SDS011;7921;43.586;1.408;2023-09-18T11:09:28;2.95;;;1.90;;
15643;SDS011;7921;43.586;1.408;2023-09-18T11:22:34;4.03;;;2.45;;
15643;SDS011;7921;43.586;1.408;2023-09-18T11:28:22;3.13;;;2.03;;
15643;SDS011;7921;43.586;1.408;2023-09-18T11:30:51;2.63;;;1.65;;
15643;SDS011;7921;43.586;1.408;2023-09-18T11:33:43;3.45;;;2.10;;
15643;SDS011;7921;43.586;1.408;2023-09-18T11:38:55;2.70;;;2.10;;
15643;SDS011;7921;43.586;1.408;2023-09-18T11:41:23;4.53;;;1.85;;
15643;SDS011;7921;43.586;1.408;2023-09-18T11:43:50;3.20;;;1.85;;
15643;SDS011;7921;43.586;1.408;2023-09-18T11:46:19;2.47;;;2.20;;
15643;SDS011;7921;43.586;1.408;2023-09-18T11:48:48;2.25;;;1.77;;
15643;SDS011;7921;43.586;1.408;2023-09-18T11:51:20;3.88;;;2.58;;
15643;SDS011;7921;43.586;1.408;2023-09-18T11:53:47;3.40;;;2.20;;
15643;SDS011;7921;43.586;1.408;2023-09-18T11:56:15;3.28;;;2.17;;
15643;SDS011;7921;43.586;1.408;2023-09-18T11:58:46;2.47;;;2.25;;
15643;SDS011;7921;43.586;1.408;2023-09-18T12:01:16;2.63;;;2.17;;
15643;SDS011;7921;43.586;1.408;2023-09-18T12:03:42;3.35;;;2.50;;
15643;SDS011;7921;43.586;1.408;2023-09-18T12:06:08;2.30;;;2.03;;
15643;SDS011;7921;43.586;1.408;2023-09-18T12:08:40;2.35;;;2.15;;
15643;SDS011;7921;43.586;1.408;2023-09-18T12:11:06;3.72;;;2.00;;
15643;SDS011;7921;43.586;1.408;2023-09-18T12:13:32;4.07;;;2.03;;
15643;SDS011;7921;43.586;1.408;2023-09-18T12:16:00;4.10;;;2.50;;
15643;SDS011;7921;43.586;1.408;2023-09-18T12:18:29;2.65;;;2.00;;
15643;SDS011;7921;43.586;1.408;2023-09-18T12:20:55;3.90;;;2.45;;
15643;SDS011;7921;43.586;1.408;2023-09-18T12:23:26;3.22;;;2.50;;
15643;SDS011;7921;43.586;1.408;2023-09-18T12:25:57;2.97;;;2.05;;
15643;SDS011;7921;43.586;1.408;2023-09-18T12:28:24;3.92;;;1.92;;
15643;SDS011;7921;43.586;1.408;2023-09-18T12:30:53;3.35;;;2.45;;
15643;SDS011;7921;43.586;1.408;2023-09-18T12:33:21;3.33;;;2.10;;
15643;SDS011;7921;43.586;1.408;2023-09-18T12:35:47;2.65;;;2.13;;
15643;SDS011;7921;43.586;1.408;2023-09-18T12:38:18;4.00;;;2.13;;
15643;SDS011;7921;43.586;1.408;2023-09-18T12:40:47;2.83;;;2.20;;
15643;SDS011;7921;43.586;1.408;2023-09-18T12:43:13;3.58;;;2.00;;
15643;SDS011;7921;43.586;1.408;2023-09-18T12:45:45;2.03;;;1.75;;
15643;SDS011;7921;43.586;1.408;2023-09-18T12:48:11;4.30;;;2.30;;
15643;SDS011;7921;43.586;1.408;2023-09-18T12:50:37;2.60;;;2.10;;
15643;SDS011;7921;43.586;1.408;2023-09-18T12:53:12;1.98;;;1.67;;
15643;SDS011;7921;43.586;1.408;2023-09-18T12:55:38;2.20;;;2.00;;
15643;SDS011;7921;43.586;1.408;2023-09-18T12:58:04;3.10;;;2.03;;
15643;SDS011;7921;43.586;1.408;2023-09-18T13:00:32;2.90;;;2.28;;
15643;SDS011;7921;43.586;1.408;2023-09-18T13:02:58;2.45;;;2.05;;
15643;SDS011;7921;43.586;1.408;2023-09-18T13:05:24;2.90;;;2.25;;
15643;SDS011;7921;43.586;1.408;2023-09-18T13:07:51;2.83;;;2.30;;
15643;SDS011;7921;43.586;1.408;2023-09-18T13:10:18;3.22;;;2.38;;
15643;SDS011;7921;43.586;1.408;2023-09-18T13:12:47;2.40;;;2.03;;
15643;SDS011;7921;43.586;1.408;2023-09-18T13:15:30;3.88;;;2.22;;
15643;SDS011;7921;43.586;1.408;2023-09-18T13:18:00;2.28;;;2.05;;
15643;SDS011;7921;43.586;1.408;2023-09-18T13:20:29;2.05;;;1.73;;
15643;SDS011;7921;43.586;1.408;2023-09-18T13:22:55;1.95;;;1.75;;
15643;SDS011;7921;43.586;1.408;2023-09-18T13:25:22;1.70;;;1.60;;
15643;SDS011;7921;43.586;1.408;2023-09-18T13:27:52;2.47;;;1.67;;
15643;SDS011;7921;43.586;1.408;2023-09-18T13:30:19;1.52;;;1.42;;
15643;SDS011;7921;43.586;1.408;2023-09-18T13:32:46;2.00;;;1.17;;
15643;SDS011;7921;43.586;1.408;2023-09-18T13:35:18;2.72;;;1.20;;
15643;SDS011;7921;43.586;1.408;2023-09-18T13:37:44;1.42;;;1.20;;
15643;SDS011;7921;43.586;1.408;2023-09-18T13:40:10;1.67;;;1.20;;
15643;SDS011;7921;43.586;1.408;2023-09-18T13:42:36;1.42;;;1.17;;
15643;SDS011;7921;43.586;1.408;2023-09-18T13:45:02;1.60;;;1.30;;
15643;SDS011;7921;43.586;1.408;2023-09-18T13:47:29;1.45;;;1.27;;
15643;SDS011;7921;43.586;1.408;2023-09-18T13:49:55;1.55;;;1.10;;
15643;SDS011;7921;43.586;1.408;2023-09-18T13:52:28;2.40;;;1.40;;
15643;SDS011;7921;43.586;1.408;2023-09-18T13:54:54;1.30;;;1.20;;
15643;SDS011;7921;43.586;1.408;2023-09-18T13:57:19;2.20;;;1.30;;
15643;SDS011;7921;43.586;1.408;2023-09-18T13:59:45;1.75;;;1.27;;
15643;SDS011;7921;43.586;1.408;2023-09-18T14:02:12;1.35;;;1.05;;
15643;SDS011;7921;43.586;1.408;2023-09-18T14:04:37;1.90;;;1.00;;
15643;SDS011;7921;43.586;1.408;2023-09-18T14:07:03;2.20;;;1.20;;
15643;SDS011;7921;43.586;1.408;2023-09-18T14:09:29;2.88;;;1.52;;
15643;SDS011;7921;43.586;1.408;2023-09-18T14:11:55;1.23;;;1.10;;
15643;SDS011;7921;43.586;1.408;2023-09-18T14:14:22;1.55;;;1.27;;
15643;SDS011;7921;43.586;1.408;2023-09-18T14:16:47;2.05;;;1.08;;
15643;SDS011;7921;43.586;1.408;2023-09-18T14:19:13;1.63;;;1.10;;
15643;SDS011;7921;43.586;1.408;2023-09-18T14:21:38;1.38;;;1.10;;
15643;SDS011;7921;43.586;1.408;2023-09-18T14:24:05;1.75;;;1.25;;
15643;SDS011;7921;43.586;1.408;2023-09-18T14:26:30;1.25;;;1.15;;
15643;SDS011;7921;43.586;1.408;2023-09-18T14:28:56;1.27;;;1.10;;
15643;SDS011;7921;43.586;1.408;2023-09-18T14:31:21;2.95;;;1.05;;
15643;SDS011;7921;43.586;1.408;2023-09-18T14:33:47;1.65;;;0.98;;
15643;SDS011;7921;43.586;1.408;2023-09-18T14:36:12;0.75;;;0.75;;
15643;SDS011;7921;43.586;1.408;2023-09-18T14:38:38;0.90;;;0.90;;
15643;SDS011;7921;43.586;1.408;2023-09-18T14:41:05;1.27;;;0.50;;
15643;SDS011;7921;43.586;1.408;2023-09-18T14:43:32;0.57;;;0.57;;
15643;SDS011;7921;43.586;1.408;2023-09-18T14:45:57;0.57;;;0.50;;
15643;SDS011;7921;43.586;1.408;2023-09-18T14:48:23;0.60;;;0.60;;
15643;SDS011;7921;43.586;1.408;2023-09-18T14:50:55;2.33;;;0.70;;
15643;SDS011;7921;43.586;1.408;2023-09-18T14:53:20;2.58;;;0.68;;
15643;SDS011;7921;43.586;1.408;2023-09-18T14:55:46;1.02;;;0.60;;
15643;SDS011;7921;43.586;1.408;2023-09-18T14:58:11;0.93;;;0.60;;
15643;SDS011;7921;43.586;1.408;2023-09-18T15:00:37;0.60;;;0.60;;
15643;SDS011;7921;43.586;1.408;2023-09-18T15:03:03;1.25;;;0.80;;
15643;SDS011;7921;43.586;1.408;2023-09-18T15:05:29;0.50;;;0.50;;
15643;SDS011;7921;43.586;1.408;2023-09-18T15:07:54;0.60;;;0.52;;
15643;SDS011;7921;43.586;1.408;2023-09-18T15:10:19;0.90;;;0.60;;
15643;SDS011;7921;43.586;1.408;2023-09-18T15:12:45;2.28;;;0.70;;
15643;SDS011;7921;43.586;1.408;2023-09-18T15:15:10;0.60;;;0.60;;
15643;SDS011;7921;43.586;1.408;2023-09-18T15:17:36;0.45;;;0.45;;
15643;SDS011;7921;43.586;1.408;2023-09-18T15:20:03;1.42;;;0.57;;
15643;SDS011;7921;43.586;1.408;2023-09-18T15:22:30;1.10;;;0.60;;